sensor_id;sensor_type;location;lat;lon;timestamp;temperature;humidity
43520;DHT22;46848;51.980;5.918;2023-05-17T00:01:27;12.60;68.40
43520;DHT22;46848;51.980;5.918;2023-05-17T00:03:52;12.60;68.40
43520;DHT22;46848;51.980;5.918;2023-05-17T00:06:20;12.60;68.50
43520;DHT22;46848;51.980;5.918;2023-05-17T00:08:46;12.60;68.50
43520;DHT22;46848;51.980;5.918;2023-05-17T00:11:12;12.60;68.50
43520;DHT22;46848;51.980;5.918;2023-05-17T00:13:37;12.60;68.70
43520;DHT22;46848;51.980;5.918;2023-05-17T00:16:05;12.50;68.70
43520;DHT22;46848;51.980;5.918;2023-05-17T00:18:31;12.50;68.80
43520;DHT22;46848;51.980;5.918;2023-05-17T00:20:57;12.50;68.80
43520;DHT22;46848;51.980;5.918;2023-05-17T00:23:22;12.50;68.90
43520;DHT22;46848;51.980;5.918;2023-05-17T00:25:48;12.50;68.90
43520;DHT22;46848;51.980;5.918;2023-05-17T00:28:14;12.50;68.80
43520;DHT22;46848;51.980;5.918;2023-05-17T00:30:39;12.50;68.90
43520;DHT22;46848;51.980;5.918;2023-05-17T00:33:05;12.50;69.00
43520;DHT22;46848;51.980;5.918;2023-05-17T00:35:31;12.50;69.00
43520;DHT22;46848;51.980;5.918;2023-05-17T00:37:57;12.50;69.70
43520;DHT22;46848;51.980;5.918;2023-05-17T00:40:23;12.50;69.10
43520;DHT22;46848;51.980;5.918;2023-05-17T00:42:48;12.50;69.20
43520;DHT22;46848;51.980;5.918;2023-05-17T00:45:15;12.40;69.20
43520;DHT22;46848;51.980;5.918;2023-05-17T00:47:41;12.40;69.20
43520;DHT22;46848;51.980;5.918;2023-05-17T00:50:07;12.40;69.30
43520;DHT22;46848;51.980;5.918;2023-05-17T00:52:34;12.40;69.30
43520;DHT22;46848;51.980;5.918;2023-05-17T00:55:00;12.40;69.40
43520;DHT22;46848;51.980;5.918;2023-05-17T00:57:25;12.40;69.40
43520;DHT22;46848;51.980;5.918;2023-05-17T00:59:54;12.40;69.50
43520;DHT22;46848;51.980;5.918;2023-05-17T01:02:20;12.30;69.50
43520;DHT22;46848;51.980;5.918;2023-05-17T01:04:47;12.30;69.50
43520;DHT22;46848;51.980;5.918;2023-05-17T01:07:13;12.30;69.60
43520;DHT22;46848;51.980;5.918;2023-05-17T01:09:39;12.30;69.60
43520;DHT22;46848;51.980;5.918;2023-05-17T01:12:14;12.30;69.70
43520;DHT22;46848;51.980;5.918;2023-05-17T01:17:38;12.30;69.80
43520;DHT22;46848;51.980;5.918;2023-05-17T01:28:37;12.20;69.90
43520;DHT22;46848;51.980;5.918;2023-05-17T01:31:04;12.20;69.70
43520;DHT22;46848;51.980;5.918;2023-05-17T01:33:30;12.20;69.90
43520;DHT22;46848;51.980;5.918;2023-05-17T01:35:56;12.20;69.90
43520;DHT22;46848;51.980;5.918;2023-05-17T01:38:22;12.20;69.90
43520;DHT22;46848;51.980;5.918;2023-05-17T01:43:40;12.20;70.10
43520;DHT22;46848;51.980;5.918;2023-05-17T01:46:30;12.20;70.20
43520;DHT22;46848;51.980;5.918;2023-05-17T01:49:20;12.20;70.30
43520;DHT22;46848;51.980;5.918;2023-05-17T01:52:12;12.20;70.30
43520;DHT22;46848;51.980;5.918;2023-05-17T01:54:54;12.20;70.20
43520;DHT22;46848;51.980;5.918;2023-05-17T01:57:25;12.20;70.30
43520;DHT22;46848;51.980;5.918;2023-05-17T01:59:53;12.20;70.40
43520;DHT22;46848;51.980;5.918;2023-05-17T02:02:20;12.10;70.50
43520;DHT22;46848;51.980;5.918;2023-05-17T02:04:46;12.20;71.30
43520;DHT22;46848;51.980;5.918;2023-05-17T02:07:12;12.20;70.70
43520;DHT22;46848;51.980;5.918;2023-05-17T02:09:38;12.20;70.70
43520;DHT22;46848;51.980;5.918;2023-05-17T02:12:04;12.20;70.70
43520;DHT22;46848;51.980;5.918;2023-05-17T02:14:30;12.20;70.70
43520;DHT22;46848;51.980;5.918;2023-05-17T02:16:55;12.30;70.80
43520;DHT22;46848;51.980;5.918;2023-05-17T02:19:21;12.20;70.70
43520;DHT22;46848;51.980;5.918;2023-05-17T02:21:46;12.30;70.80
43520;DHT22;46848;51.980;5.918;2023-05-17T02:24:12;12.30;70.80
43520;DHT22;46848;51.980;5.918;2023-05-17T02:26:38;12.30;70.80
43520;DHT22;46848;51.980;5.918;2023-05-17T02:29:07;12.30;70.80
43520;DHT22;46848;51.980;5.918;2023-05-17T02:31:33;12.30;70.80
43520;DHT22;46848;51.980;5.918;2023-05-17T02:33:59;12.30;70.80
43520;DHT22;46848;51.980;5.918;2023-05-17T02:36:24;12.30;70.90
43520;DHT22;46848;51.980;5.918;2023-05-17T02:38:50;12.30;70.90
43520;DHT22;46848;51.980;5.918;2023-05-17T02:41:15;12.30;70.90
43520;DHT22;46848;51.980;5.918;2023-05-17T02:43:41;12.30;71.10
43520;DHT22;46848;51.980;5.918;2023-05-17T02:46:06;12.30;71.10
43520;DHT22;46848;51.980;5.918;2023-05-17T02:48:32;12.30;71.20
43520;DHT22;46848;51.980;5.918;2023-05-17T02:50:58;12.30;71.20
43520;DHT22;46848;51.980;5.918;2023-05-17T02:53:23;12.30;71.10
43520;DHT22;46848;51.980;5.918;2023-05-17T02:55:49;12.40;71.20
43520;DHT22;46848;51.980;5.918;2023-05-17T02:58:15;12.30;71.30
43520;DHT22;46848;51.980;5.918;2023-05-17T03:00:44;12.40;71.40
43520;DHT22;46848;51.980;5.918;2023-05-17T03:03:10;12.40;71.40
43520;DHT22;46848;51.980;5.918;2023-05-17T03:05:36;12.40;72.40
43520;DHT22;46848;51.980;5.918;2023-05-17T03:08:01;12.30;72.70
43520;DHT22;46848;51.980;5.918;2023-05-17T03:10:27;12.30;72.70
43520;DHT22;46848;51.980;5.918;2023-05-17T03:12:52;12.20;72.90
43520;DHT22;46848;51.980;5.918;2023-05-17T03:15:18;12.20;72.80
43520;DHT22;46848;51.980;5.918;2023-05-17T03:17:44;12.30;72.70
43520;DHT22;46848;51.980;5.918;2023-05-17T03:20:10;12.30;72.70
43520;DHT22;46848;51.980;5.918;2023-05-17T03:22:35;12.20;72.50
43520;DHT22;46848;51.980;5.918;2023-05-17T03:25:01;12.20;72.50
43520;DHT22;46848;51.980;5.918;2023-05-17T03:27:27;12.30;72.50
43520;DHT22;46848;51.980;5.918;2023-05-17T03:29:52;12.20;72.60
43520;DHT22;46848;51.980;5.918;2023-05-17T03:32:18;12.30;72.40
43520;DHT22;46848;51.980;5.918;2023-05-17T03:34:43;12.30;72.30
43520;DHT22;46848;51.980;5.918;2023-05-17T03:37:09;12.30;72.20
43520;DHT22;46848;51.980;5.918;2023-05-17T03:39:35;12.30;72.20
43520;DHT22;46848;51.980;5.918;2023-05-17T03:42:00;12.30;72.10
43520;DHT22;46848;51.980;5.918;2023-05-17T03:44:26;12.30;72.10
43520;DHT22;46848;51.980;5.918;2023-05-17T03:46:52;12.30;72.10
43520;DHT22;46848;51.980;5.918;2023-05-17T03:49:17;12.30;72.10
43520;DHT22;46848;51.980;5.918;2023-05-17T03:51:43;12.30;72.10
43520;DHT22;46848;51.980;5.918;2023-05-17T03:54:09;12.30;72.00
43520;DHT22;46848;51.980;5.918;2023-05-17T03:56:35;12.40;72.00
43520;DHT22;46848;51.980;5.918;2023-05-17T03:59:01;12.30;71.80
43520;DHT22;46848;51.980;5.918;2023-05-17T04:01:26;12.40;71.80
43520;DHT22;46848;51.980;5.918;2023-05-17T04:03:52;12.40;71.80
43520;DHT22;46848;51.980;5.918;2023-05-17T04:06:17;12.40;71.70
43520;DHT22;46848;51.980;5.918;2023-05-17T04:08:43;12.30;71.60
43520;DHT22;46848;51.980;5.918;2023-05-17T04:11:09;12.40;71.60
43520;DHT22;46848;51.980;5.918;2023-05-17T04:13:37;12.40;71.60
43520;DHT22;46848;51.980;5.918;2023-05-17T04:16:02;12.40;71.60
43520;DHT22;46848;51.980;5.918;2023-05-17T04:18:28;12.40;71.60
43520;DHT22;46848;51.980;5.918;2023-05-17T04:20:54;12.40;71.70
43520;DHT22;46848;51.980;5.918;2023-05-17T04:23:20;12.40;71.70
43520;DHT22;46848;51.980;5.918;2023-05-17T04:25:46;12.40;71.60
43520;DHT22;46848;51.980;5.918;2023-05-17T04:28:11;12.30;71.50
43520;DHT22;46848;51.980;5.918;2023-05-17T04:30:41;12.40;71.50
43520;DHT22;46848;51.980;5.918;2023-05-17T04:33:07;12.40;71.50
43520;DHT22;46848;51.980;5.918;2023-05-17T04:35:32;12.30;71.50
43520;DHT22;46848;51.980;5.918;2023-05-17T04:37:58;12.30;71.40
43520;DHT22;46848;51.980;5.918;2023-05-17T04:40:24;12.40;71.50
43520;DHT22;46848;51.980;5.918;2023-05-17T04:42:50;12.30;71.30
43520;DHT22;46848;51.980;5.918;2023-05-17T04:45:16;12.30;71.30
43520;DHT22;46848;51.980;5.918;2023-05-17T04:47:42;12.30;71.30
43520;DHT22;46848;51.980;5.918;2023-05-17T04:50:08;12.30;71.30
43520;DHT22;46848;51.980;5.918;2023-05-17T04:52:33;12.30;71.30
43520;DHT22;46848;51.980;5.918;2023-05-17T04:54:59;12.40;71.30
43520;DHT22;46848;51.980;5.918;2023-05-17T04:57:25;12.40;71.90
43520;DHT22;46848;51.980;5.918;2023-05-17T04:59:50;12.40;71.40
43520;DHT22;46848;51.980;5.918;2023-05-17T05:02:16;12.50;71.40
43520;DHT22;46848;51.980;5.918;2023-05-17T05:04:41;12.50;71.40
43520;DHT22;46848;51.980;5.918;2023-05-17T05:07:07;12.50;71.40
43520;DHT22;46848;51.980;5.918;2023-05-17T05:09:33;12.60;71.40
43520;DHT22;46848;51.980;5.918;2023-05-17T05:11:58;12.70;71.30
43520;DHT22;46848;51.980;5.918;2023-05-17T05:14:24;12.70;71.20
43520;DHT22;46848;51.980;5.918;2023-05-17T05:16:49;12.80;71.10
43520;DHT22;46848;51.980;5.918;2023-05-17T05:19:15;12.80;71.10
43520;DHT22;46848;51.980;5.918;2023-05-17T05:21:44;12.80;71.00
43520;DHT22;46848;51.980;5.918;2023-05-17T05:24:10;12.90;71.10
43520;DHT22;46848;51.980;5.918;2023-05-17T05:26:36;13.00;70.90
43520;DHT22;46848;51.980;5.918;2023-05-17T05:29:01;13.00;71.00
43520;DHT22;46848;51.980;5.918;2023-05-17T05:31:27;13.10;71.00
43520;DHT22;46848;51.980;5.918;2023-05-17T05:33:53;13.20;71.10
43520;DHT22;46848;51.980;5.918;2023-05-17T05:36:19;13.20;71.00
43520;DHT22;46848;51.980;5.918;2023-05-17T05:38:44;13.20;70.90
43520;DHT22;46848;51.980;5.918;2023-05-17T05:41:10;13.30;70.80
43520;DHT22;46848;51.980;5.918;2023-05-17T05:43:35;13.40;70.80
43520;DHT22;46848;51.980;5.918;2023-05-17T05:46:02;13.40;70.60
43520;DHT22;46848;51.980;5.918;2023-05-17T05:48:27;13.50;70.40
43520;DHT22;46848;51.980;5.918;2023-05-17T05:50:53;13.50;70.10
43520;DHT22;46848;51.980;5.918;2023-05-17T05:53:19;13.50;69.90
43520;DHT22;46848;51.980;5.918;2023-05-17T05:55:44;13.50;69.80
43520;DHT22;46848;51.980;5.918;2023-05-17T05:58:10;13.60;69.50
43520;DHT22;46848;51.980;5.918;2023-05-17T06:00:35;13.60;69.50
43520;DHT22;46848;51.980;5.918;2023-05-17T06:03:01;13.40;69.60
43520;DHT22;46848;51.980;5.918;2023-05-17T06:05:27;13.40;70.20
43520;DHT22;46848;51.980;5.918;2023-05-17T06:07:53;13.20;70.20
43520;DHT22;46848;51.980;5.918;2023-05-17T06:10:18;13.20;70.20
43520;DHT22;46848;51.980;5.918;2023-05-17T06:12:44;13.30;70.40
43520;DHT22;46848;51.980;5.918;2023-05-17T06:15:10;13.30;70.20
43520;DHT22;46848;51.980;5.918;2023-05-17T06:17:35;13.50;70.00
43520;DHT22;46848;51.980;5.918;2023-05-17T06:20:25;13.60;69.60
43520;DHT22;46848;51.980;5.918;2023-05-17T06:22:53;13.80;69.40
43520;DHT22;46848;51.980;5.918;2023-05-17T06:25:18;14.00;69.10
43520;DHT22;46848;51.980;5.918;2023-05-17T06:27:44;14.20;68.70
43520;DHT22;46848;51.980;5.918;2023-05-17T06:30:10;14.40;68.30
43520;DHT22;46848;51.980;5.918;2023-05-17T06:32:38;14.50;67.80
43520;DHT22;46848;51.980;5.918;2023-05-17T06:35:04;14.50;67.30
43520;DHT22;46848;51.980;5.918;2023-05-17T06:37:31;14.40;67.30
43520;DHT22;46848;51.980;5.918;2023-05-17T06:40:07;14.50;67.50
43520;DHT22;46848;51.980;5.918;2023-05-17T06:42:33;14.50;67.00
43520;DHT22;46848;51.980;5.918;2023-05-17T06:44:59;14.60;67.00
43520;DHT22;46848;51.980;5.918;2023-05-17T06:47:25;14.80;66.90
43520;DHT22;46848;51.980;5.918;2023-05-17T06:49:50;15.00;66.50
43520;DHT22;46848;51.980;5.918;2023-05-17T06:52:16;15.20;66.20
43520;DHT22;46848;51.980;5.918;2023-05-17T06:54:42;15.40;65.80
43520;DHT22;46848;51.980;5.918;2023-05-17T06:57:08;15.60;65.40
43520;DHT22;46848;51.980;5.918;2023-05-17T06:59:35;15.80;64.80
43520;DHT22;46848;51.980;5.918;2023-05-17T07:02:01;15.90;64.40
43520;DHT22;46848;51.980;5.918;2023-05-17T07:04:26;16.10;63.90
43520;DHT22;46848;51.980;5.918;2023-05-17T07:06:52;16.40;63.50
43520;DHT22;46848;51.980;5.918;2023-05-17T07:09:19;16.40;62.90
43520;DHT22;46848;51.980;5.918;2023-05-17T07:11:45;16.60;62.60
43520;DHT22;46848;51.980;5.918;2023-05-17T07:14:11;16.80;62.00
43520;DHT22;46848;51.980;5.918;2023-05-17T07:16:37;16.90;61.40
43520;DHT22;46848;51.980;5.918;2023-05-17T07:19:02;17.00;60.90
43520;DHT22;46848;51.980;5.918;2023-05-17T07:21:28;17.00;60.80
43520;DHT22;46848;51.980;5.918;2023-05-17T07:23:54;16.90;59.50
43520;DHT22;46848;51.980;5.918;2023-05-17T07:26:20;16.80;59.30
43520;DHT22;46848;51.980;5.918;2023-05-17T07:28:46;16.70;59.20
43520;DHT22;46848;51.980;5.918;2023-05-17T07:31:12;16.70;59.40
43520;DHT22;46848;51.980;5.918;2023-05-17T07:33:37;16.60;59.20
43520;DHT22;46848;51.980;5.918;2023-05-17T07:36:04;16.60;59.10
43520;DHT22;46848;51.980;5.918;2023-05-17T07:38:29;16.60;58.80
43520;DHT22;46848;51.980;5.918;2023-05-17T07:40:55;16.60;57.90
43520;DHT22;46848;51.980;5.918;2023-05-17T07:43:21;16.60;58.00
43520;DHT22;46848;51.980;5.918;2023-05-17T07:45:46;16.60;57.60
43520;DHT22;46848;51.980;5.918;2023-05-17T07:48:12;16.70;58.00
43520;DHT22;46848;51.980;5.918;2023-05-17T07:50:39;16.90;57.50
43520;DHT22;46848;51.980;5.918;2023-05-17T07:53:05;17.10;57.40
43520;DHT22;46848;51.980;5.918;2023-05-17T07:55:31;17.30;57.10
43520;DHT22;46848;51.980;5.918;2023-05-17T07:57:58;17.40;55.50
43520;DHT22;46848;51.980;5.918;2023-05-17T08:00:23;17.30;56.10
43520;DHT22;46848;51.980;5.918;2023-05-17T08:02:49;17.20;55.60
43520;DHT22;46848;51.980;5.918;2023-05-17T08:05:15;17.40;55.40
43520;DHT22;46848;51.980;5.918;2023-05-17T08:07:41;17.60;54.80
43520;DHT22;46848;51.980;5.918;2023-05-17T08:10:07;17.70;55.00
43520;DHT22;46848;51.980;5.918;2023-05-17T08:12:33;17.70;54.90
43520;DHT22;46848;51.980;5.918;2023-05-17T08:14:58;17.70;53.80
43520;DHT22;46848;51.980;5.918;2023-05-17T08:17:24;17.80;54.50
43520;DHT22;46848;51.980;5.918;2023-05-17T08:19:50;17.90;53.50
43520;DHT22;46848;51.980;5.918;2023-05-17T08:22:15;17.90;54.40
43520;DHT22;46848;51.980;5.918;2023-05-17T08:24:41;18.10;53.90
43520;DHT22;46848;51.980;5.918;2023-05-17T08:27:09;18.30;52.50
43520;DHT22;46848;51.980;5.918;2023-05-17T08:29:35;18.20;52.20
43520;DHT22;46848;51.980;5.918;2023-05-17T08:32:01;18.10;50.00
43520;DHT22;46848;51.980;5.918;2023-05-17T08:34:27;17.80;51.40
43520;DHT22;46848;51.980;5.918;2023-05-17T08:36:53;17.90;52.40
43520;DHT22;46848;51.980;5.918;2023-05-17T08:39:18;18.00;52.20
43520;DHT22;46848;51.980;5.918;2023-05-17T08:41:46;18.10;52.00
43520;DHT22;46848;51.980;5.918;2023-05-17T08:44:14;18.50;52.10
43520;DHT22;46848;51.980;5.918;2023-05-17T08:46:42;18.80;51.80
43520;DHT22;46848;51.980;5.918;2023-05-17T08:49:08;19.00;51.70
43520;DHT22;46848;51.980;5.918;2023-05-17T08:51:39;19.10;51.30
43520;DHT22;46848;51.980;5.918;2023-05-17T08:54:06;19.10;48.30
43520;DHT22;46848;51.980;5.918;2023-05-17T08:56:34;19.10;48.40
43520;DHT22;46848;51.980;5.918;2023-05-17T08:59:01;19.20;48.30
43520;DHT22;46848;51.980;5.918;2023-05-17T09:01:30;19.40;47.60
43520;DHT22;46848;51.980;5.918;2023-05-17T09:03:56;19.50;47.00
43520;DHT22;46848;51.980;5.918;2023-05-17T09:06:23;19.60;48.50
43520;DHT22;46848;51.980;5.918;2023-05-17T09:08:53;19.80;47.10
43520;DHT22;46848;51.980;5.918;2023-05-17T09:11:32;19.90;48.20
43520;DHT22;46848;51.980;5.918;2023-05-17T09:14:03;20.10;48.20
43520;DHT22;46848;51.980;5.918;2023-05-17T09:16:36;20.50;46.50
43520;DHT22;46848;51.980;5.918;2023-05-17T09:19:06;20.60;44.80
43520;DHT22;46848;51.980;5.918;2023-05-17T09:21:33;20.70;46.60
43520;DHT22;46848;51.980;5.918;2023-05-17T09:23:59;20.80;47.00
43520;DHT22;46848;51.980;5.918;2023-05-17T09:29:10;20.90;47.10
43520;DHT22;46848;51.980;5.918;2023-05-17T09:31:39;20.70;46.10
43520;DHT22;46848;51.980;5.918;2023-05-17T09:34:05;20.60;44.50
43520;DHT22;46848;51.980;5.918;2023-05-17T09:36:38;20.60;46.00
43520;DHT22;46848;51.980;5.918;2023-05-17T09:39:06;20.70;44.30
43520;DHT22;46848;51.980;5.918;2023-05-17T09:41:46;20.50;44.30
43520;DHT22;46848;51.980;5.918;2023-05-17T09:44:12;20.70;46.30
43520;DHT22;46848;51.980;5.918;2023-05-17T09:46:44;20.80;45.80
43520;DHT22;46848;51.980;5.918;2023-05-17T09:49:10;20.90;44.90
43520;DHT22;46848;51.980;5.918;2023-05-17T09:51:38;20.90;46.00
43520;DHT22;46848;51.980;5.918;2023-05-17T09:54:05;21.10;46.00
43520;DHT22;46848;51.980;5.918;2023-05-17T09:56:31;21.40;45.80
43520;DHT22;46848;51.980;5.918;2023-05-17T09:58:59;21.40;42.60
43520;DHT22;46848;51.980;5.918;2023-05-17T10:01:29;21.20;42.80
43520;DHT22;46848;51.980;5.918;2023-05-17T10:03:59;21.10;45.10
43520;DHT22;46848;51.980;5.918;2023-05-17T10:06:27;21.40;45.10
43520;DHT22;46848;51.980;5.918;2023-05-17T10:08:56;21.60;44.00
43520;DHT22;46848;51.980;5.918;2023-05-17T10:11:27;22.00;43.50
43520;DHT22;46848;51.980;5.918;2023-05-17T10:16:32;21.60;42.20
43520;DHT22;46848;51.980;5.918;2023-05-17T10:18:59;21.80;44.00
43520;DHT22;46848;51.980;5.918;2023-05-17T10:21:26;22.00;45.50
43520;DHT22;46848;51.980;5.918;2023-05-17T10:23:53;22.20;43.80
43520;DHT22;46848;51.980;5.918;2023-05-17T10:26:19;22.40;44.20
43520;DHT22;46848;51.980;5.918;2023-05-17T10:28:46;22.70;43.00
43520;DHT22;46848;51.980;5.918;2023-05-17T10:31:15;22.80;43.70
43520;DHT22;46848;51.980;5.918;2023-05-17T10:33:42;23.00;43.80
43520;DHT22;46848;51.980;5.918;2023-05-17T10:36:10;23.10;43.00
43520;DHT22;46848;51.980;5.918;2023-05-17T10:38:37;23.10;43.50
43520;DHT22;46848;51.980;5.918;2023-05-17T10:41:02;23.00;44.30
43520;DHT22;46848;51.980;5.918;2023-05-17T10:43:29;23.00;44.20
43520;DHT22;46848;51.980;5.918;2023-05-17T10:45:56;23.10;42.50
43520;DHT22;46848;51.980;5.918;2023-05-17T10:48:22;23.10;40.70
43520;DHT22;46848;51.980;5.918;2023-05-17T10:50:52;23.00;42.30
43520;DHT22;46848;51.980;5.918;2023-05-17T10:53:18;23.20;41.30
43520;DHT22;46848;51.980;5.918;2023-05-17T10:55:43;22.90;38.50
43520;DHT22;46848;51.980;5.918;2023-05-17T10:58:19;22.90;40.90
43520;DHT22;46848;51.980;5.918;2023-05-17T11:00:50;23.00;41.00
43520;DHT22;46848;51.980;5.918;2023-05-17T11:03:19;23.00;38.20
43520;DHT22;46848;51.980;5.918;2023-05-17T11:06:38;22.60;39.10
43520;DHT22;46848;51.980;5.918;2023-05-17T11:09:14;22.60;39.70
43520;DHT22;46848;51.980;5.918;2023-05-17T11:12:06;22.40;38.90
43520;DHT22;46848;51.980;5.918;2023-05-17T11:22:34;22.30;42.30
43520;DHT22;46848;51.980;5.918;2023-05-17T11:25:05;22.60;41.90
43520;DHT22;46848;51.980;5.918;2023-05-17T11:27:46;22.90;41.50
43520;DHT22;46848;51.980;5.918;2023-05-17T11:30:30;22.80;38.90
43520;DHT22;46848;51.980;5.918;2023-05-17T11:33:01;22.90;38.80
43520;DHT22;46848;51.980;5.918;2023-05-17T11:35:35;22.70;36.00
43520;DHT22;46848;51.980;5.918;2023-05-17T11:40:48;22.70;35.80
43520;DHT22;46848;51.980;5.918;2023-05-17T11:43:19;22.70;38.90
43520;DHT22;46848;51.980;5.918;2023-05-17T11:45:48;22.80;39.20
43520;DHT22;46848;51.980;5.918;2023-05-17T11:48:16;23.00;39.90
43520;DHT22;46848;51.980;5.918;2023-05-17T11:50:44;23.20;40.10
43520;DHT22;46848;51.980;5.918;2023-05-17T11:53:11;23.30;37.90
43520;DHT22;46848;51.980;5.918;2023-05-17T11:55:38;23.50;38.90
43520;DHT22;46848;51.980;5.918;2023-05-17T11:58:12;23.50;38.30
43520;DHT22;46848;51.980;5.918;2023-05-17T12:00:40;23.50;38.10
43520;DHT22;46848;51.980;5.918;2023-05-17T12:05:46;23.40;37.20
43520;DHT22;46848;51.980;5.918;2023-05-17T12:08:25;23.30;36.20
43520;DHT22;46848;51.980;5.918;2023-05-17T12:10:55;23.00;34.80
43520;DHT22;46848;51.980;5.918;2023-05-17T12:13:21;22.40;37.20
43520;DHT22;46848;51.980;5.918;2023-05-17T12:15:55;22.30;38.80
43520;DHT22;46848;51.980;5.918;2023-05-17T12:18:22;22.40;38.30
43520;DHT22;46848;51.980;5.918;2023-05-17T12:20:54;22.50;39.00
43520;DHT22;46848;51.980;5.918;2023-05-17T12:23:38;22.50;36.90
43520;DHT22;46848;51.980;5.918;2023-05-17T12:26:15;22.10;36.80
43520;DHT22;46848;51.980;5.918;2023-05-17T12:28:57;21.80;38.10
43520;DHT22;46848;51.980;5.918;2023-05-17T12:32:06;21.70;35.40
43520;DHT22;46848;51.980;5.918;2023-05-17T12:34:33;21.30;37.60
43520;DHT22;46848;51.980;5.918;2023-05-17T12:36:59;21.30;38.60
43520;DHT22;46848;51.980;5.918;2023-05-17T12:39:29;21.40;38.00
43520;DHT22;46848;51.980;5.918;2023-05-17T12:42:02;21.20;37.30
43520;DHT22;46848;51.980;5.918;2023-05-17T12:44:32;21.20;37.80
43520;DHT22;46848;51.980;5.918;2023-05-17T12:47:20;21.30;38.10
43520;DHT22;46848;51.980;5.918;2023-05-17T12:50:03;21.40;38.80
43520;DHT22;46848;51.980;5.918;2023-05-17T12:52:39;21.70;37.90
43520;DHT22;46848;51.980;5.918;2023-05-17T12:55:05;21.70;38.20
43520;DHT22;46848;51.980;5.918;2023-05-17T12:57:38;21.80;37.20
43520;DHT22;46848;51.980;5.918;2023-05-17T13:00:05;21.60;34.30
43520;DHT22;46848;51.980;5.918;2023-05-17T13:02:32;21.40;37.50
43520;DHT22;46848;51.980;5.918;2023-05-17T13:04:57;21.60;37.60
43520;DHT22;46848;51.980;5.918;2023-05-17T13:07:23;21.70;37.80
43520;DHT22;46848;51.980;5.918;2023-05-17T13:09:49;21.80;37.90
43520;DHT22;46848;51.980;5.918;2023-05-17T13:12:22;21.90;37.60
43520;DHT22;46848;51.980;5.918;2023-05-17T13:14:49;21.90;36.50
43520;DHT22;46848;51.980;5.918;2023-05-17T13:17:24;21.60;35.50
43520;DHT22;46848;51.980;5.918;2023-05-17T13:19:50;21.60;35.90
43520;DHT22;46848;51.980;5.918;2023-05-17T13:22:16;21.50;35.10
43520;DHT22;46848;51.980;5.918;2023-05-17T13:24:45;21.20;35.70
43520;DHT22;46848;51.980;5.918;2023-05-17T13:27:11;21.10;36.00
43520;DHT22;46848;51.980;5.918;2023-05-17T13:29:41;21.10;36.50
43520;DHT22;46848;51.980;5.918;2023-05-17T13:32:08;21.30;37.00
43520;DHT22;46848;51.980;5.918;2023-05-17T13:34:34;21.50;37.50
43520;DHT22;46848;51.980;5.918;2023-05-17T13:36:59;21.80;37.60
43520;DHT22;46848;51.980;5.918;2023-05-17T13:39:26;21.90;37.50
43520;DHT22;46848;51.980;5.918;2023-05-17T13:41:51;22.20;37.90
43520;DHT22;46848;51.980;5.918;2023-05-17T13:44:18;22.40;37.30
43520;DHT22;46848;51.980;5.918;2023-05-17T13:46:44;22.40;35.90
43520;DHT22;46848;51.980;5.918;2023-05-17T13:49:09;22.10;35.40
43520;DHT22;46848;51.980;5.918;2023-05-17T13:51:35;22.00;35.40
43520;DHT22;46848;51.980;5.918;2023-05-17T13:54:05;21.80;35.50
43520;DHT22;46848;51.980;5.918;2023-05-17T13:56:31;21.70;36.20
43520;DHT22;46848;51.980;5.918;2023-05-17T13:58:57;21.60;37.00
43520;DHT22;46848;51.980;5.918;2023-05-17T14:01:24;21.60;37.20
43520;DHT22;46848;51.980;5.918;2023-05-17T14:03:51;21.60;36.60
43520;DHT22;46848;51.980;5.918;2023-05-17T14:06:17;21.60;37.10
43520;DHT22;46848;51.980;5.918;2023-05-17T14:08:42;21.80;37.40
43520;DHT22;46848;51.980;5.918;2023-05-17T14:11:10;22.00;37.70
43520;DHT22;46848;51.980;5.918;2023-05-17T14:13:36;22.30;37.80
43520;DHT22;46848;51.980;5.918;2023-05-17T14:16:01;22.50;37.90
43520;DHT22;46848;51.980;5.918;2023-05-17T14:18:27;22.60;36.40
43520;DHT22;46848;51.980;5.918;2023-05-17T14:20:53;22.70;37.30
43520;DHT22;46848;51.980;5.918;2023-05-17T14:23:18;22.80;36.30
43520;DHT22;46848;51.980;5.918;2023-05-17T14:25:44;22.70;36.20
43520;DHT22;46848;51.980;5.918;2023-05-17T14:28:13;22.80;37.30
43520;DHT22;46848;51.980;5.918;2023-05-17T14:30:40;22.90;37.70
43520;DHT22;46848;51.980;5.918;2023-05-17T14:33:06;23.00;36.00
43520;DHT22;46848;51.980;5.918;2023-05-17T14:35:31;22.90;35.60
43520;DHT22;46848;51.980;5.918;2023-05-17T14:37:57;22.60;35.40
43520;DHT22;46848;51.980;5.918;2023-05-17T14:40:23;22.40;36.50
43520;DHT22;46848;51.980;5.918;2023-05-17T14:42:48;22.30;36.90
43520;DHT22;46848;51.980;5.918;2023-05-17T14:45:14;22.20;36.40
43520;DHT22;46848;51.980;5.918;2023-05-17T14:47:39;22.10;36.60
43520;DHT22;46848;51.980;5.918;2023-05-17T14:50:05;21.80;36.60
43520;DHT22;46848;51.980;5.918;2023-05-17T14:52:31;21.70;36.80
43520;DHT22;46848;51.980;5.918;2023-05-17T14:54:57;21.50;36.90
43520;DHT22;46848;51.980;5.918;2023-05-17T14:57:23;21.50;38.10
43520;DHT22;46848;51.980;5.918;2023-05-17T14:59:49;21.50;38.00
43520;DHT22;46848;51.980;5.918;2023-05-17T15:02:15;21.70;38.90
43520;DHT22;46848;51.980;5.918;2023-05-17T15:04:40;21.90;38.60
43520;DHT22;46848;51.980;5.918;2023-05-17T15:07:06;22.10;38.50
43520;DHT22;46848;51.980;5.918;2023-05-17T15:09:40;22.20;37.80
43520;DHT22;46848;51.980;5.918;2023-05-17T15:12:09;22.30;37.00
43520;DHT22;46848;51.980;5.918;2023-05-17T15:14:35;22.20;37.20
43520;DHT22;46848;51.980;5.918;2023-05-17T15:17:01;22.20;37.70
43520;DHT22;46848;51.980;5.918;2023-05-17T15:19:28;22.00;37.20
43520;DHT22;46848;51.980;5.918;2023-05-17T15:21:53;22.10;38.00
43520;DHT22;46848;51.980;5.918;2023-05-17T15:24:23;22.20;38.30
43520;DHT22;46848;51.980;5.918;2023-05-17T15:26:49;22.40;38.60
43520;DHT22;46848;51.980;5.918;2023-05-17T15:29:14;22.50;37.10
43520;DHT22;46848;51.980;5.918;2023-05-17T15:31:40;22.30;35.80
43520;DHT22;46848;51.980;5.918;2023-05-17T15:34:06;22.30;37.40
43520;DHT22;46848;51.980;5.918;2023-05-17T15:36:33;22.40;37.50
43520;DHT22;46848;51.980;5.918;2023-05-17T15:38:58;22.40;37.50
43520;DHT22;46848;51.980;5.918;2023-05-17T15:41:24;22.40;37.20
43520;DHT22;46848;51.980;5.918;2023-05-17T15:43:52;22.30;36.00
43520;DHT22;46848;51.980;5.918;2023-05-17T15:46:19;21.90;35.10
43520;DHT22;46848;51.980;5.918;2023-05-17T15:48:45;21.60;36.10
43520;DHT22;46848;51.980;5.918;2023-05-17T15:51:10;21.30;36.20
43520;DHT22;46848;51.980;5.918;2023-05-17T15:53:36;21.10;36.70
43520;DHT22;46848;51.980;5.918;2023-05-17T15:56:02;20.90;36.20
43520;DHT22;46848;51.980;5.918;2023-05-17T15:58:28;20.60;36.60
43520;DHT22;46848;51.980;5.918;2023-05-17T16:00:57;20.40;37.40
43520;DHT22;46848;51.980;5.918;2023-05-17T16:03:23;20.30;37.50
43520;DHT22;46848;51.980;5.918;2023-05-17T16:05:49;20.30;37.30